sensor_id;sensor_type;location;lat;lon;timestamp;P1;durP1;ratioP1;P2;durP2;ratioP2
67768;SDS011;54569;52.018;5.584;2024-02-21T00:00:55;7.40;;;4.72;;
67768;SDS011;54569;52.018;5.584;2024-02-21T00:03:21;8.65;;;4.45;;
67768;SDS011;54569;52.018;5.584;2024-02-21T00:05:46;7.32;;;4.55;;
67768;SDS011;54569;52.018;5.584;2024-02-21T00:08:12;7.00;;;4.47;;
67768;SDS011;54569;52.018;5.584;2024-02-21T00:10:38;7.75;;;4.82;;
67768;SDS011;54569;52.018;5.584;2024-02-21T00:13:04;5.85;;;4.68;;
67768;SDS011;54569;52.018;5.584;2024-02-21T00:15:29;5.80;;;4.20;;
67768;SDS011;54569;52.018;5.584;2024-02-21T00:17:55;9.25;;;4.38;;
67768;SDS011;54569;52.018;5.584;2024-02-21T00:20:21;11.07;;;4.63;;
67768;SDS011;54569;52.018;5.584;2024-02-21T00:22:47;7.15;;;5.22;;
67768;SDS011;54569;52.018;5.584;2024-02-21T00:25:12;7.13;;;4.65;;
67768;SDS011;54569;52.018;5.584;2024-02-21T00:27:38;8.35;;;5.00;;
67768;SDS011;54569;52.018;5.584;2024-02-21T00:30:04;7.53;;;4.57;;
67768;SDS011;54569;52.018;5.584;2024-02-21T00:32:31;9.82;;;5.05;;
67768;SDS011;54569;52.018;5.584;2024-02-21T00:34:59;7.70;;;4.63;;
67768;SDS011;54569;52.018;5.584;2024-02-21T00:37:25;9.40;;;4.88;;
67768;SDS011;54569;52.018;5.584;2024-02-21T00:39:50;7.70;;;4.32;;
67768;SDS011;54569;52.018;5.584;2024-02-21T00:42:16;5.45;;;4.60;;
67768;SDS011;54569;52.018;5.584;2024-02-21T00:44:43;9.00;;;4.22;;
67768;SDS011;54569;52.018;5.584;2024-02-21T00:47:09;11.25;;;4.88;;
67768;SDS011;54569;52.018;5.584;2024-02-21T00:49:35;10.57;;;5.00;;
67768;SDS011;54569;52.018;5.584;2024-02-21T00:52:01;9.77;;;4.55;;
67768;SDS011;54569;52.018;5.584;2024-02-21T00:54:27;6.25;;;4.80;;
67768;SDS011;54569;52.018;5.584;2024-02-21T00:56:52;9.35;;;5.28;;
67768;SDS011;54569;52.018;5.584;2024-02-21T00:59:18;11.25;;;5.07;;
67768;SDS011;54569;52.018;5.584;2024-02-21T01:01:44;7.90;;;4.75;;
67768;SDS011;54569;52.018;5.584;2024-02-21T01:04:09;9.45;;;4.50;;
67768;SDS011;54569;52.018;5.584;2024-02-21T01:06:35;9.40;;;4.50;;
67768;SDS011;54569;52.018;5.584;2024-02-21T01:09:01;7.72;;;4.63;;
67768;SDS011;54569;52.018;5.584;2024-02-21T01:11:27;11.38;;;4.50;;
67768;SDS011;54569;52.018;5.584;2024-02-21T01:13:53;8.13;;;4.35;;
67768;SDS011;54569;52.018;5.584;2024-02-21T01:16:20;9.70;;;4.30;;
67768;SDS011;54569;52.018;5.584;2024-02-21T01:18:45;10.13;;;5.18;;
67768;SDS011;54569;52.018;5.584;2024-02-21T01:21:11;6.57;;;4.20;;
67768;SDS011;54569;52.018;5.584;2024-02-21T01:23:37;11.00;;;5.22;;
67768;SDS011;54569;52.018;5.584;2024-02-21T01:26:03;9.57;;;5.43;;
67768;SDS011;54569;52.018;5.584;2024-02-21T01:28:29;9.43;;;4.95;;
67768;SDS011;54569;52.018;5.584;2024-02-21T01:30:56;10.18;;;4.65;;
67768;SDS011;54569;52.018;5.584;2024-02-21T01:33:22;5.53;;;4.95;;
67768;SDS011;54569;52.018;5.584;2024-02-21T01:35:48;12.98;;;4.97;;
67768;SDS011;54569;52.018;5.584;2024-02-21T01:38:14;11.50;;;4.70;;
67768;SDS011;54569;52.018;5.584;2024-02-21T01:40:40;9.68;;;4.72;;
67768;SDS011;54569;52.018;5.584;2024-02-21T01:43:15;7.97;;;4.47;;
67768;SDS011;54569;52.018;5.584;2024-02-21T01:45:42;11.43;;;4.72;;
67768;SDS011;54569;52.018;5.584;2024-02-21T01:48:08;13.55;;;5.95;;
67768;SDS011;54569;52.018;5.584;2024-02-21T01:50:34;7.57;;;4.03;;
67768;SDS011;54569;52.018;5.584;2024-02-21T01:53:01;12.25;;;4.82;;
67768;SDS011;54569;52.018;5.584;2024-02-21T01:55:27;10.25;;;4.90;;
67768;SDS011;54569;52.018;5.584;2024-02-21T01:57:55;5.28;;;4.20;;
67768;SDS011;54569;52.018;5.584;2024-02-21T02:00:21;9.95;;;4.40;;
67768;SDS011;54569;52.018;5.584;2024-02-21T02:02:48;9.88;;;4.35;;
67768;SDS011;54569;52.018;5.584;2024-02-21T02:05:14;8.00;;;5.07;;
67768;SDS011;54569;52.018;5.584;2024-02-21T02:07:42;10.45;;;4.53;;
67768;SDS011;54569;52.018;5.584;2024-02-21T02:10:08;8.18;;;4.60;;
67768;SDS011;54569;52.018;5.584;2024-02-21T02:12:35;11.20;;;4.47;;
67768;SDS011;54569;52.018;5.584;2024-02-21T02:15:01;6.97;;;4.22;;
67768;SDS011;54569;52.018;5.584;2024-02-21T02:17:31;8.02;;;4.82;;
67768;SDS011;54569;52.018;5.584;2024-02-21T02:19:57;12.60;;;4.95;;
67768;SDS011;54569;52.018;5.584;2024-02-21T02:22:25;5.88;;;4.22;;
67768;SDS011;54569;52.018;5.584;2024-02-21T02:24:54;10.57;;;4.35;;
67768;SDS011;54569;52.018;5.584;2024-02-21T02:27:20;8.85;;;4.70;;
67768;SDS011;54569;52.018;5.584;2024-02-21T02:29:48;10.10;;;4.40;;
67768;SDS011;54569;52.018;5.584;2024-02-21T02:32:14;6.97;;;4.78;;
67768;SDS011;54569;52.018;5.584;2024-02-21T02:34:40;11.90;;;4.65;;
67768;SDS011;54569;52.018;5.584;2024-02-21T02:37:05;9.05;;;4.47;;
67768;SDS011;54569;52.018;5.584;2024-02-21T02:39:31;12.48;;;4.57;;
67768;SDS011;54569;52.018;5.584;2024-02-21T02:41:57;10.13;;;4.38;;
67768;SDS011;54569;52.018;5.584;2024-02-21T02:44:23;9.27;;;4.60;;
67768;SDS011;54569;52.018;5.584;2024-02-21T02:46:49;10.50;;;4.65;;
67768;SDS011;54569;52.018;5.584;2024-02-21T02:49:14;11.20;;;4.50;;
67768;SDS011;54569;52.018;5.584;2024-02-21T02:51:43;9.18;;;4.30;;
67768;SDS011;54569;52.018;5.584;2024-02-21T02:54:09;11.82;;;5.05;;
67768;SDS011;54569;52.018;5.584;2024-02-21T02:56:36;9.73;;;4.63;;
67768;SDS011;54569;52.018;5.584;2024-02-21T02:59:01;11.27;;;4.85;;
67768;SDS011;54569;52.018;5.584;2024-02-21T03:01:28;8.38;;;4.22;;
67768;SDS011;54569;52.018;5.584;2024-02-21T03:03:54;10.63;;;4.72;;
67768;SDS011;54569;52.018;5.584;2024-02-21T03:06:19;9.20;;;4.68;;
67768;SDS011;54569;52.018;5.584;2024-02-21T03:08:45;12.52;;;4.60;;
67768;SDS011;54569;52.018;5.584;2024-02-21T03:11:11;7.22;;;4.28;;
67768;SDS011;54569;52.018;5.584;2024-02-21T03:13:37;9.52;;;4.50;;
67768;SDS011;54569;52.018;5.584;2024-02-21T03:16:03;7.85;;;4.57;;
67768;SDS011;54569;52.018;5.584;2024-02-21T03:18:29;9.48;;;4.32;;
67768;SDS011;54569;52.018;5.584;2024-02-21T03:20:55;7.47;;;4.20;;
67768;SDS011;54569;52.018;5.584;2024-02-21T03:23:20;7.00;;;4.13;;
67768;SDS011;54569;52.018;5.584;2024-02-21T03:25:46;7.70;;;4.50;;
67768;SDS011;54569;52.018;5.584;2024-02-21T03:28:12;12.13;;;4.82;;
67768;SDS011;54569;52.018;5.584;2024-02-21T03:30:38;7.43;;;4.70;;
67768;SDS011;54569;52.018;5.584;2024-02-21T03:33:03;7.72;;;4.18;;
67768;SDS011;54569;52.018;5.584;2024-02-21T03:35:30;7.63;;;4.40;;
67768;SDS011;54569;52.018;5.584;2024-02-21T03:37:56;9.02;;;4.63;;
67768;SDS011;54569;52.018;5.584;2024-02-21T03:40:22;9.82;;;5.13;;
67768;SDS011;54569;52.018;5.584;2024-02-21T03:42:47;8.55;;;4.10;;
67768;SDS011;54569;52.018;5.584;2024-02-21T03:45:13;7.05;;;4.38;;
67768;SDS011;54569;52.018;5.584;2024-02-21T03:47:39;6.68;;;4.25;;
67768;SDS011;54569;52.018;5.584;2024-02-21T03:50:05;10.38;;;5.03;;
67768;SDS011;54569;52.018;5.584;2024-02-21T03:52:31;6.43;;;4.80;;
67768;SDS011;54569;52.018;5.584;2024-02-21T03:54:57;12.32;;;4.65;;
67768;SDS011;54569;52.018;5.584;2024-02-21T03:57:23;10.15;;;4.22;;
67768;SDS011;54569;52.018;5.584;2024-02-21T03:59:51;12.50;;;5.07;;
67768;SDS011;54569;52.018;5.584;2024-02-21T04:02:17;9.95;;;4.53;;
67768;SDS011;54569;52.018;5.584;2024-02-21T04:04:43;7.47;;;3.92;;
67768;SDS011;54569;52.018;5.584;2024-02-21T04:07:16;10.25;;;4.60;;
67768;SDS011;54569;52.018;5.584;2024-02-21T04:09:42;10.20;;;4.72;;
67768;SDS011;54569;52.018;5.584;2024-02-21T04:12:08;9.38;;;4.07;;
67768;SDS011;54569;52.018;5.584;2024-02-21T04:14:33;8.55;;;4.28;;
67768;SDS011;54569;52.018;5.584;2024-02-21T04:17:00;7.20;;;4.82;;
67768;SDS011;54569;52.018;5.584;2024-02-21T04:19:25;10.60;;;4.40;;
67768;SDS011;54569;52.018;5.584;2024-02-21T04:21:51;8.25;;;4.95;;
67768;SDS011;54569;52.018;5.584;2024-02-21T04:24:17;6.90;;;4.10;;
67768;SDS011;54569;52.018;5.584;2024-02-21T04:26:43;8.73;;;4.63;;
67768;SDS011;54569;52.018;5.584;2024-02-21T04:29:08;10.05;;;4.97;;
67768;SDS011;54569;52.018;5.584;2024-02-21T04:31:35;10.38;;;5.28;;
67768;SDS011;54569;52.018;5.584;2024-02-21T04:34:00;9.38;;;5.05;;
67768;SDS011;54569;52.018;5.584;2024-02-21T04:36:28;9.85;;;5.18;;
67768;SDS011;54569;52.018;5.584;2024-02-21T04:38:53;12.07;;;5.72;;
67768;SDS011;54569;52.018;5.584;2024-02-21T04:41:19;10.52;;;5.90;;
67768;SDS011;54569;52.018;5.584;2024-02-21T04:43:47;11.90;;;6.25;;
67768;SDS011;54569;52.018;5.584;2024-02-21T04:46:13;10.45;;;5.32;;
67768;SDS011;54569;52.018;5.584;2024-02-21T04:48:39;7.05;;;5.80;;
67768;SDS011;54569;52.018;5.584;2024-02-21T04:51:05;12.20;;;6.40;;
67768;SDS011;54569;52.018;5.584;2024-02-21T04:53:30;9.65;;;5.97;;
67768;SDS011;54569;52.018;5.584;2024-02-21T04:55:56;12.40;;;6.38;;
67768;SDS011;54569;52.018;5.584;2024-02-21T04:58:22;14.43;;;6.28;;
67768;SDS011;54569;52.018;5.584;2024-02-21T05:00:48;12.45;;;6.10;;
67768;SDS011;54569;52.018;5.584;2024-02-21T05:03:13;10.45;;;5.65;;
67768;SDS011;54569;52.018;5.584;2024-02-21T05:05:39;10.57;;;5.65;;
67768;SDS011;54569;52.018;5.584;2024-02-21T05:08:05;9.13;;;5.65;;
67768;SDS011;54569;52.018;5.584;2024-02-21T05:10:31;10.07;;;6.13;;
67768;SDS011;54569;52.018;5.584;2024-02-21T05:12:57;8.75;;;5.13;;
67768;SDS011;54569;52.018;5.584;2024-02-21T05:15:23;10.52;;;6.32;;
67768;SDS011;54569;52.018;5.584;2024-02-21T05:17:49;11.30;;;5.78;;
67768;SDS011;54569;52.018;5.584;2024-02-21T05:20:14;9.50;;;6.22;;
67768;SDS011;54569;52.018;5.584;2024-02-21T05:22:40;8.73;;;5.72;;
67768;SDS011;54569;52.018;5.584;2024-02-21T05:25:06;11.75;;;6.18;;
67768;SDS011;54569;52.018;5.584;2024-02-21T05:27:32;9.82;;;6.40;;
67768;SDS011;54569;52.018;5.584;2024-02-21T05:29:58;10.65;;;6.22;;
67768;SDS011;54569;52.018;5.584;2024-02-21T05:32:25;8.63;;;5.68;;
67768;SDS011;54569;52.018;5.584;2024-02-21T05:34:51;11.13;;;6.97;;
67768;SDS011;54569;52.018;5.584;2024-02-21T05:37:17;11.23;;;6.28;;
67768;SDS011;54569;52.018;5.584;2024-02-21T05:39:42;8.27;;;5.70;;
67768;SDS011;54569;52.018;5.584;2024-02-21T05:42:09;10.43;;;6.22;;
67768;SDS011;54569;52.018;5.584;2024-02-21T05:44:34;11.90;;;7.32;;
67768;SDS011;54569;52.018;5.584;2024-02-21T05:47:00;12.40;;;6.57;;
67768;SDS011;54569;52.018;5.584;2024-02-21T05:49:26;13.30;;;7.00;;
67768;SDS011;54569;52.018;5.584;2024-02-21T05:51:51;12.75;;;7.15;;
67768;SDS011;54569;52.018;5.584;2024-02-21T05:54:17;15.18;;;7.72;;
67768;SDS011;54569;52.018;5.584;2024-02-21T05:56:46;12.27;;;7.97;;
67768;SDS011;54569;52.018;5.584;2024-02-21T05:59:12;14.70;;;7.68;;
67768;SDS011;54569;52.018;5.584;2024-02-21T06:01:38;12.38;;;7.93;;
67768;SDS011;54569;52.018;5.584;2024-02-21T06:04:04;10.98;;;8.50;;
67768;SDS011;54569;52.018;5.584;2024-02-21T06:06:32;15.50;;;8.73;;
67768;SDS011;54569;52.018;5.584;2024-02-21T06:08:58;16.83;;;9.07;;
67768;SDS011;54569;52.018;5.584;2024-02-21T06:11:25;14.60;;;8.48;;
67768;SDS011;54569;52.018;5.584;2024-02-21T06:13:51;14.40;;;8.40;;
67768;SDS011;54569;52.018;5.584;2024-02-21T06:16:16;16.00;;;9.48;;
67768;SDS011;54569;52.018;5.584;2024-02-21T06:18:42;12.93;;;8.73;;
67768;SDS011;54569;52.018;5.584;2024-02-21T06:21:08;18.38;;;9.32;;
67768;SDS011;54569;52.018;5.584;2024-02-21T06:23:33;14.27;;;8.82;;
67768;SDS011;54569;52.018;5.584;2024-02-21T06:26:01;12.73;;;9.48;;
67768;SDS011;54569;52.018;5.584;2024-02-21T06:28:27;17.33;;;9.30;;
67768;SDS011;54569;52.018;5.584;2024-02-21T06:30:53;15.02;;;8.77;;
67768;SDS011;54569;52.018;5.584;2024-02-21T06:33:19;15.63;;;9.52;;
67768;SDS011;54569;52.018;5.584;2024-02-21T06:35:50;17.65;;;9.80;;
67768;SDS011;54569;52.018;5.584;2024-02-21T06:38:18;12.70;;;8.73;;
67768;SDS011;54569;52.018;5.584;2024-02-21T06:40:44;13.23;;;8.88;;
67768;SDS011;54569;52.018;5.584;2024-02-21T06:43:14;14.90;;;8.80;;
67768;SDS011;54569;52.018;5.584;2024-02-21T06:45:41;18.50;;;8.85;;
67768;SDS011;54569;52.018;5.584;2024-02-21T06:48:08;17.00;;;8.98;;
67768;SDS011;54569;52.018;5.584;2024-02-21T06:50:33;12.70;;;8.05;;
67768;SDS011;54569;52.018;5.584;2024-02-21T06:52:59;15.98;;;8.73;;
67768;SDS011;54569;52.018;5.584;2024-02-21T06:55:25;15.63;;;8.77;;
67768;SDS011;54569;52.018;5.584;2024-02-21T06:57:50;15.27;;;8.10;;
67768;SDS011;54569;52.018;5.584;2024-02-21T07:00:16;14.88;;;8.85;;
67768;SDS011;54569;52.018;5.584;2024-02-21T07:02:42;15.48;;;8.43;;
67768;SDS011;54569;52.018;5.584;2024-02-21T07:05:08;16.77;;;8.05;;
67768;SDS011;54569;52.018;5.584;2024-02-21T07:07:34;12.43;;;7.35;;
67768;SDS011;54569;52.018;5.584;2024-02-21T07:10:00;13.55;;;7.45;;
67768;SDS011;54569;52.018;5.584;2024-02-21T07:12:26;14.88;;;7.38;;
67768;SDS011;54569;52.018;5.584;2024-02-21T07:14:51;15.43;;;7.38;;
67768;SDS011;54569;52.018;5.584;2024-02-21T07:17:17;11.63;;;7.50;;
67768;SDS011;54569;52.018;5.584;2024-02-21T07:19:43;13.77;;;7.78;;
67768;SDS011;54569;52.018;5.584;2024-02-21T07:22:08;13.45;;;7.15;;
67768;SDS011;54569;52.018;5.584;2024-02-21T07:24:34;14.18;;;7.63;;
67768;SDS011;54569;52.018;5.584;2024-02-21T07:27:00;11.27;;;7.10;;
67768;SDS011;54569;52.018;5.584;2024-02-21T07:29:29;14.15;;;6.70;;
67768;SDS011;54569;52.018;5.584;2024-02-21T07:31:56;10.85;;;6.40;;
67768;SDS011;54569;52.018;5.584;2024-02-21T07:34:21;15.15;;;6.95;;
67768;SDS011;54569;52.018;5.584;2024-02-21T07:36:47;14.63;;;7.53;;
67768;SDS011;54569;52.018;5.584;2024-02-21T07:39:13;8.80;;;6.05;;
67768;SDS011;54569;52.018;5.584;2024-02-21T07:41:38;10.93;;;6.53;;
67768;SDS011;54569;52.018;5.584;2024-02-21T07:44:06;12.15;;;6.30;;
67768;SDS011;54569;52.018;5.584;2024-02-21T07:46:32;11.20;;;6.22;;
67768;SDS011;54569;52.018;5.584;2024-02-21T07:48:58;12.95;;;6.95;;
67768;SDS011;54569;52.018;5.584;2024-02-21T07:51:27;12.23;;;6.82;;
67768;SDS011;54569;52.018;5.584;2024-02-21T07:53:53;11.85;;;6.63;;
67768;SDS011;54569;52.018;5.584;2024-02-21T07:56:19;12.73;;;6.72;;
67768;SDS011;54569;52.018;5.584;2024-02-21T07:58:44;11.20;;;6.55;;
67768;SDS011;54569;52.018;5.584;2024-02-21T08:01:11;11.75;;;6.57;;
67768;SDS011;54569;52.018;5.584;2024-02-21T08:03:36;13.38;;;6.80;;
67768;SDS011;54569;52.018;5.584;2024-02-21T08:06:03;12.65;;;7.40;;
67768;SDS011;54569;52.018;5.584;2024-02-21T08:08:28;14.60;;;7.22;;
67768;SDS011;54569;52.018;5.584;2024-02-21T08:10:55;10.98;;;6.95;;
67768;SDS011;54569;52.018;5.584;2024-02-21T08:13:20;10.05;;;7.25;;
67768;SDS011;54569;52.018;5.584;2024-02-21T08:15:46;14.57;;;7.18;;
67768;SDS011;54569;52.018;5.584;2024-02-21T08:18:12;12.48;;;7.68;;
67768;SDS011;54569;52.018;5.584;2024-02-21T08:20:38;10.23;;;6.55;;
67768;SDS011;54569;52.018;5.584;2024-02-21T08:23:03;15.77;;;7.13;;
67768;SDS011;54569;52.018;5.584;2024-02-21T08:25:29;13.20;;;7.03;;
67768;SDS011;54569;52.018;5.584;2024-02-21T08:27:57;12.68;;;6.50;;
67768;SDS011;54569;52.018;5.584;2024-02-21T08:30:23;9.70;;;6.55;;
67768;SDS011;54569;52.018;5.584;2024-02-21T08:32:49;14.02;;;8.15;;
67768;SDS011;54569;52.018;5.584;2024-02-21T08:35:15;11.93;;;6.78;;
67768;SDS011;54569;52.018;5.584;2024-02-21T08:37:43;13.02;;;7.15;;
67768;SDS011;54569;52.018;5.584;2024-02-21T08:40:10;14.18;;;7.72;;
67768;SDS011;54569;52.018;5.584;2024-02-21T08:42:36;11.70;;;7.18;;
67768;SDS011;54569;52.018;5.584;2024-02-21T08:45:04;10.00;;;6.35;;
67768;SDS011;54569;52.018;5.584;2024-02-21T08:47:30;11.57;;;6.57;;
67768;SDS011;54569;52.018;5.584;2024-02-21T08:49:55;13.80;;;7.75;;
67768;SDS011;54569;52.018;5.584;2024-02-21T08:52:21;14.18;;;7.07;;
67768;SDS011;54569;52.018;5.584;2024-02-21T08:54:47;13.68;;;7.65;;
67768;SDS011;54569;52.018;5.584;2024-02-21T08:57:13;11.45;;;6.50;;
67768;SDS011;54569;52.018;5.584;2024-02-21T08:59:39;10.45;;;6.78;;
67768;SDS011;54569;52.018;5.584;2024-02-21T09:02:05;12.48;;;7.10;;
67768;SDS011;54569;52.018;5.584;2024-02-21T09:04:32;14.43;;;7.03;;
67768;SDS011;54569;52.018;5.584;2024-02-21T09:06:59;14.32;;;7.07;;
67768;SDS011;54569;52.018;5.584;2024-02-21T09:09:24;12.95;;;7.40;;
67768;SDS011;54569;52.018;5.584;2024-02-21T09:11:50;10.80;;;7.10;;
67768;SDS011;54569;52.018;5.584;2024-02-21T09:14:16;12.65;;;6.57;;
67768;SDS011;54569;52.018;5.584;2024-02-21T09:16:42;14.73;;;7.10;;
67768;SDS011;54569;52.018;5.584;2024-02-21T09:19:09;10.40;;;6.68;;
67768;SDS011;54569;52.018;5.584;2024-02-21T09:21:39;12.57;;;6.50;;
67768;SDS011;54569;52.018;5.584;2024-02-21T09:24:05;12.45;;;7.18;;
67768;SDS011;54569;52.018;5.584;2024-02-21T09:26:31;12.65;;;6.15;;
67768;SDS011;54569;52.018;5.584;2024-02-21T09:28:57;8.55;;;6.10;;
67768;SDS011;54569;52.018;5.584;2024-02-21T09:31:23;10.20;;;6.43;;
67768;SDS011;54569;52.018;5.584;2024-02-21T09:33:49;10.02;;;6.25;;
67768;SDS011;54569;52.018;5.584;2024-02-21T09:36:14;9.88;;;6.13;;
67768;SDS011;54569;52.018;5.584;2024-02-21T09:38:40;9.90;;;6.00;;
67768;SDS011;54569;52.018;5.584;2024-02-21T09:43:50;8.32;;;6.18;;
67768;SDS011;54569;52.018;5.584;2024-02-21T09:46:18;10.75;;;6.40;;
67768;SDS011;54569;52.018;5.584;2024-02-21T09:51:36;9.55;;;5.88;;
67768;SDS011;54569;52.018;5.584;2024-02-21T09:54:03;9.10;;;6.43;;
67768;SDS011;54569;52.018;5.584;2024-02-21T09:56:29;8.00;;;5.75;;
67768;SDS011;54569;52.018;5.584;2024-02-21T09:58:55;7.20;;;5.63;;
67768;SDS011;54569;52.018;5.584;2024-02-21T10:01:22;8.40;;;5.20;;
67768;SDS011;54569;52.018;5.584;2024-02-21T10:03:48;7.80;;;5.32;;
67768;SDS011;54569;52.018;5.584;2024-02-21T10:06:14;8.55;;;5.70;;
67768;SDS011;54569;52.018;5.584;2024-02-21T10:08:40;12.00;;;5.57;;
67768;SDS011;54569;52.018;5.584;2024-02-21T10:11:06;8.55;;;5.53;;
67768;SDS011;54569;52.018;5.584;2024-02-21T10:13:34;10.88;;;6.03;;
67768;SDS011;54569;52.018;5.584;2024-02-21T10:16:09;10.18;;;5.70;;
67768;SDS011;54569;52.018;5.584;2024-02-21T10:18:34;7.03;;;5.25;;
67768;SDS011;54569;52.018;5.584;2024-02-21T10:21:04;6.75;;;5.15;;
67768;SDS011;54569;52.018;5.584;2024-02-21T10:23:44;7.13;;;5.10;;
67768;SDS011;54569;52.018;5.584;2024-02-21T10:26:10;6.57;;;4.80;;
67768;SDS011;54569;52.018;5.584;2024-02-21T10:28:37;6.95;;;4.68;;
67768;SDS011;54569;52.018;5.584;2024-02-21T10:31:08;5.20;;;4.47;;
67768;SDS011;54569;52.018;5.584;2024-02-21T10:33:35;5.80;;;4.00;;
67768;SDS011;54569;52.018;5.584;2024-02-21T10:36:10;6.47;;;4.72;;
67768;SDS011;54569;52.018;5.584;2024-02-21T10:38:36;5.40;;;4.90;;
67768;SDS011;54569;52.018;5.584;2024-02-21T10:41:06;5.13;;;4.55;;
67768;SDS011;54569;52.018;5.584;2024-02-21T10:43:33;5.70;;;3.92;;
67768;SDS011;54569;52.018;5.584;2024-02-21T10:46:05;4.13;;;3.72;;
67768;SDS011;54569;52.018;5.584;2024-02-21T10:48:36;6.78;;;4.53;;
67768;SDS011;54569;52.018;5.584;2024-02-21T10:51:17;5.43;;;4.20;;
67768;SDS011;54569;52.018;5.584;2024-02-21T10:53:45;7.03;;;4.30;;
67768;SDS011;54569;52.018;5.584;2024-02-21T10:56:31;5.38;;;4.20;;
67768;SDS011;54569;52.018;5.584;2024-02-21T10:59:01;6.53;;;4.30;;
67768;SDS011;54569;52.018;5.584;2024-02-21T11:01:28;4.97;;;4.38;;
67768;SDS011;54569;52.018;5.584;2024-02-21T11:04:01;5.97;;;4.80;;
67768;SDS011;54569;52.018;5.584;2024-02-21T11:06:30;5.83;;;4.70;;
67768;SDS011;54569;52.018;5.584;2024-02-21T11:09:03;6.60;;;5.00;;
67768;SDS011;54569;52.018;5.584;2024-02-21T11:11:40;5.60;;;5.07;;
67768;SDS011;54569;52.018;5.584;2024-02-21T11:14:08;6.57;;;5.93;;
67768;SDS011;54569;52.018;5.584;2024-02-21T11:16:42;7.88;;;5.93;;
67768;SDS011;54569;52.018;5.584;2024-02-21T11:21:49;7.53;;;5.95;;
67768;SDS011;54569;52.018;5.584;2024-02-21T11:24:25;7.47;;;5.82;;
67768;SDS011;54569;52.018;5.584;2024-02-21T11:26:51;7.25;;;6.53;;
67768;SDS011;54569;52.018;5.584;2024-02-21T11:29:22;8.82;;;6.15;;
67768;SDS011;54569;52.018;5.584;2024-02-21T11:31:50;8.40;;;6.57;;
67768;SDS011;54569;52.018;5.584;2024-02-21T11:34:19;7.80;;;6.60;;
67768;SDS011;54569;52.018;5.584;2024-02-21T11:36:52;7.85;;;7.00;;
67768;SDS011;54569;52.018;5.584;2024-02-21T11:39:21;10.68;;;6.82;;
67768;SDS011;54569;52.018;5.584;2024-02-21T11:42:02;9.77;;;7.65;;
67768;SDS011;54569;52.018;5.584;2024-02-21T11:44:29;10.13;;;7.15;;
67768;SDS011;54569;52.018;5.584;2024-02-21T11:46:55;10.23;;;6.80;;
67768;SDS011;54569;52.018;5.584;2024-02-21T11:49:20;7.57;;;6.75;;
67768;SDS011;54569;52.018;5.584;2024-02-21T11:51:46;8.45;;;6.50;;
67768;SDS011;54569;52.018;5.584;2024-02-21T11:54:13;7.45;;;5.68;;
67768;SDS011;54569;52.018;5.584;2024-02-21T11:56:41;8.55;;;6.15;;
67768;SDS011;54569;52.018;5.584;2024-02-21T11:59:08;10.00;;;5.82;;
67768;SDS011;54569;52.018;5.584;2024-02-21T12:01:34;8.93;;;6.00;;
67768;SDS011;54569;52.018;5.584;2024-02-21T12:04:00;7.15;;;5.25;;
67768;SDS011;54569;52.018;5.584;2024-02-21T12:06:25;9.88;;;6.07;;
67768;SDS011;54569;52.018;5.584;2024-02-21T12:08:51;7.07;;;5.25;;
67768;SDS011;54569;52.018;5.584;2024-02-21T12:11:21;8.07;;;5.32;;
67768;SDS011;54569;52.018;5.584;2024-02-21T12:14:00;7.57;;;4.93;;
67768;SDS011;54569;52.018;5.584;2024-02-21T12:16:29;9.15;;;4.90;;
67768;SDS011;54569;52.018;5.584;2024-02-21T12:18:55;7.85;;;4.88;;
67768;SDS011;54569;52.018;5.584;2024-02-21T12:21:40;8.15;;;4.85;;
67768;SDS011;54569;52.018;5.584;2024-02-21T12:24:12;7.18;;;4.85;;
67768;SDS011;54569;52.018;5.584;2024-02-21T12:26:39;6.28;;;4.97;;
67768;SDS011;54569;52.018;5.584;2024-02-21T12:29:05;9.25;;;5.18;;
67768;SDS011;54569;52.018;5.584;2024-02-21T12:31:31;6.10;;;4.93;;
67768;SDS011;54569;52.018;5.584;2024-02-21T12:33:57;6.88;;;4.40;;
67768;SDS011;54569;52.018;5.584;2024-02-21T12:36:23;6.78;;;4.40;;
67768;SDS011;54569;52.018;5.584;2024-02-21T12:38:49;11.57;;;4.78;;
67768;SDS011;54569;52.018;5.584;2024-02-21T12:41:15;7.35;;;4.40;;
67768;SDS011;54569;52.018;5.584;2024-02-21T12:43:41;8.10;;;4.78;;
67768;SDS011;54569;52.018;5.584;2024-02-21T12:46:07;4.70;;;3.90;;
67768;SDS011;54569;52.018;5.584;2024-02-21T12:48:33;5.82;;;3.92;;
67768;SDS011;54569;52.018;5.584;2024-02-21T12:50:59;6.70;;;4.57;;
67768;SDS011;54569;52.018;5.584;2024-02-21T12:53:25;9.52;;;4.47;;
67768;SDS011;54569;52.018;5.584;2024-02-21T12:55:50;8.25;;;4.65;;
67768;SDS011;54569;52.018;5.584;2024-02-21T12:58:16;7.05;;;5.40;;
67768;SDS011;54569;52.018;5.584;2024-02-21T13:00:42;6.03;;;4.40;;
67768;SDS011;54569;52.018;5.584;2024-02-21T13:03:08;7.47;;;4.18;;
67768;SDS011;54569;52.018;5.584;2024-02-21T13:05:37;6.72;;;4.28;;
67768;SDS011;54569;52.018;5.584;2024-02-21T13:08:04;10.05;;;4.45;;
67768;SDS011;54569;52.018;5.584;2024-02-21T13:10:31;7.28;;;4.03;;
67768;SDS011;54569;52.018;5.584;2024-02-21T13:12:58;7.15;;;3.95;;
67768;SDS011;54569;52.018;5.584;2024-02-21T13:15:24;6.47;;;4.13;;
67768;SDS011;54569;52.018;5.584;2024-02-21T13:17:50;5.80;;;3.75;;
67768;SDS011;54569;52.018;5.584;2024-02-21T13:20:15;7.05;;;4.05;;
67768;SDS011;54569;52.018;5.584;2024-02-21T13:22:41;6.22;;;4.55;;
67768;SDS011;54569;52.018;5.584;2024-02-21T13:25:07;7.20;;;3.83;;
67768;SDS011;54569;52.018;5.584;2024-02-21T13:27:33;4.32;;;3.67;;
67768;SDS011;54569;52.018;5.584;2024-02-21T13:29:59;7.05;;;4.00;;
67768;SDS011;54569;52.018;5.584;2024-02-21T13:32:28;6.32;;;3.63;;
67768;SDS011;54569;52.018;5.584;2024-02-21T13:34:53;10.40;;;3.83;;
67768;SDS011;54569;52.018;5.584;2024-02-21T13:37:19;6.53;;;4.15;;
67768;SDS011;54569;52.018;5.584;2024-02-21T13:39:46;6.82;;;4.40;;
67768;SDS011;54569;52.018;5.584;2024-02-21T13:42:12;7.07;;;4.43;;
67768;SDS011;54569;52.018;5.584;2024-02-21T13:44:38;6.60;;;3.90;;
67768;SDS011;54569;52.018;5.584;2024-02-21T13:47:04;4.70;;;3.47;;
67768;SDS011;54569;52.018;5.584;2024-02-21T13:49:33;7.05;;;3.65;;
67768;SDS011;54569;52.018;5.584;2024-02-21T13:51:59;8.02;;;3.90;;
67768;SDS011;54569;52.018;5.584;2024-02-21T13:54:25;7.18;;;3.35;;
67768;SDS011;54569;52.018;5.584;2024-02-21T13:56:51;7.20;;;3.80;;
67768;SDS011;54569;52.018;5.584;2024-02-21T13:59:16;5.53;;;3.83;;
67768;SDS011;54569;52.018;5.584;2024-02-21T14:01:43;9.15;;;4.28;;
67768;SDS011;54569;52.018;5.584;2024-02-21T14:04:08;7.25;;;3.95;;
67768;SDS011;54569;52.018;5.584;2024-02-21T14:06:34;6.53;;;3.75;;
67768;SDS011;54569;52.018;5.584;2024-02-21T14:09:00;6.65;;;3.60;;
67768;SDS011;54569;52.018;5.584;2024-02-21T14:11:26;6.97;;;3.65;;
67768;SDS011;54569;52.018;5.584;2024-02-21T14:13:53;9.05;;;3.85;;
67768;SDS011;54569;52.018;5.584;2024-02-21T14:16:22;5.43;;;3.50;;
67768;SDS011;54569;52.018;5.584;2024-02-21T14:18:48;6.75;;;3.92;;
67768;SDS011;54569;52.018;5.584;2024-02-21T14:21:13;8.07;;;3.63;;
67768;SDS011;54569;52.018;5.584;2024-02-21T14:23:40;10.00;;;3.50;;
67768;SDS011;54569;52.018;5.584;2024-02-21T14:26:06;8.75;;;3.35;;
67768;SDS011;54569;52.018;5.584;2024-02-21T14:28:32;8.85;;;3.20;;
67768;SDS011;54569;52.018;5.584;2024-02-21T14:31:00;5.93;;;2.97;;
67768;SDS011;54569;52.018;5.584;2024-02-21T14:33:26;6.00;;;2.65;;
67768;SDS011;54569;52.018;5.584;2024-02-21T14:35:52;4.40;;;2.80;;
67768;SDS011;54569;52.018;5.584;2024-02-21T14:38:19;3.75;;;2.75;;
67768;SDS011;54569;52.018;5.584;2024-02-21T14:40:44;6.90;;;3.30;;
67768;SDS011;54569;52.018;5.584;2024-02-21T14:43:10;6.57;;;2.97;;
67768;SDS011;54569;52.018;5.584;2024-02-21T14:45:36;6.32;;;3.10;;